createdAt,value
2023-04-15T00:04:37.509Z,15.12
2023-04-15T00:19:40.928Z,14.95
2023-04-15T00:34:43.571Z,14.77
2023-04-15T00:49:46.819Z,14.62
2023-04-15T01:04:49.887Z,14.57
2023-04-15T01:19:53.081Z,14.52
2023-04-15T01:34:55.647Z,14.49
2023-04-15T01:49:58.207Z,14.55
2023-04-15T02:05:00.818Z,14.61
2023-04-15T02:20:06.210Z,14.58
2023-04-15T02:35:09.308Z,14.52
2023-04-15T02:50:13.325Z,14.43
2023-04-15T03:05:16.262Z,14.37
2023-04-15T03:20:19.717Z,14.15
2023-04-15T03:35:22.674Z,14.01
2023-04-15T03:50:26.009Z,14.01
2023-04-15T04:05:28.672Z,13.56
2023-04-15T04:20:32.171Z,13.07
2023-04-15T04:35:37.726Z,13.05
2023-04-15T04:50:40.474Z,12.10
2023-04-15T05:05:43.533Z,11.67
2023-04-15T05:20:51.309Z,12.54
2023-04-15T05:35:56.617Z,12.87
2023-04-15T05:50:59.472Z,11.66
2023-04-15T06:06:02.723Z,13.07
2023-04-15T06:21:05.754Z,13.69
2023-04-15T06:36:08.483Z,13.04
2023-04-15T06:51:11.891Z,12.74
2023-04-15T07:06:14.967Z,14.03
2023-04-15T07:21:17.889Z,13.43
2023-04-15T07:36:20.868Z,12.89
2023-04-15T07:51:23.642Z,12.67
2023-04-15T08:06:27.471Z,13.17
2023-04-15T08:21:31.073Z,14.26
2023-04-15T08:36:33.784Z,16.69
2023-04-15T08:51:36.597Z,21.23
2023-04-15T09:06:40.298Z,23.92
2023-04-15T09:21:47.751Z,23.99
2023-04-15T09:36:56.317Z,24.33
2023-04-15T09:52:06.106Z,24.92
2023-04-15T10:07:09.982Z,23.89
2023-04-15T10:22:14.382Z,22.23
2023-04-15T10:37:34.767Z,21.59
2023-04-15T10:52:43.853Z,20.13
2023-04-15T11:07:49.173Z,19.69
2023-04-15T11:23:14.495Z,19.74
2023-04-15T11:38:19.618Z,20.43
2023-04-15T11:53:23.464Z,21.31
2023-04-15T12:08:26.082Z,21.32
2023-04-15T12:23:28.629Z,20.21
2023-04-15T12:38:31.825Z,19.33
2023-04-15T12:53:34.398Z,18.84
2023-04-15T13:08:42.563Z,18.50
2023-04-15T13:23:50.372Z,18.22
2023-04-15T13:38:53.094Z,17.97
2023-04-15T13:54:00.894Z,17.74
2023-04-15T14:09:04.251Z,17.45
2023-04-15T14:24:07.314Z,17.33
2023-04-15T14:39:10.937Z,17.13
2023-04-15T14:54:13.621Z,16.81
2023-04-15T15:09:16.679Z,16.40
2023-04-15T15:24:19.292Z,15.98
2023-04-15T15:39:23.517Z,15.87
2023-04-15T15:54:26.527Z,15.67
2023-04-15T16:09:29.155Z,15.42
2023-04-15T16:24:34.893Z,15.14
2023-04-15T16:39:37.783Z,14.84
2023-04-15T16:54:43.866Z,14.45
2023-04-15T17:09:46.650Z,14.05
2023-04-15T17:24:49.541Z,13.71
2023-04-15T17:39:57.524Z,13.43
2023-04-15T17:55:00.538Z,13.25
2023-04-15T18:10:03.763Z,13.16
2023-04-15T18:25:07.109Z,13.75
2023-04-15T18:40:10.586Z,13.53
2023-04-15T18:55:13.410Z,13.62
2023-04-15T19:10:16.194Z,13.16
2023-04-15T19:25:18.885Z,13.04
2023-04-15T19:40:21.468Z,13.33
2023-04-15T19:55:24.229Z,12.23
2023-04-15T20:10:27.283Z,12.38
2023-04-15T20:25:29.949Z,13.09
2023-04-15T20:40:33.725Z,13.36
2023-04-15T20:55:36.314Z,13.25
2023-04-15T21:10:40.374Z,13.01
2023-04-15T21:25:43.116Z,12.82
2023-04-15T21:40:45.668Z,13.56
2023-04-15T21:55:48.355Z,13.78
2023-04-15T22:10:51.009Z,13.95
2023-04-15T22:25:53.670Z,14.03
2023-04-15T22:40:56.246Z,14.01
2023-04-15T22:55:58.778Z,14.04
2023-04-15T23:11:01.381Z,13.82
2023-04-15T23:26:04.391Z,13.64
2023-04-15T23:41:07.056Z,13.34
2023-04-15T23:56:09.876Z,12.91
